I67

Cincinnati West Airport

Harrison, Ohio, USA
METAR KI67 171435Z AUTO 17003KT 10SM CLR 23/20 A2997 RMK AO1
Observed Flight Rules
Aug-17 @ 14:35 UTC (22 minutes ago) Visual Flight Rules
Wind Visibility Clouds
170° at 3 knots 10 miles
  • Clear skies
Temperatures Readings
Current 23°C / 73°F
Dewpoint 20°C / 68°F
Humidity 83%
Altimeter 29.97" Hg
Pressure 1015 hPa
Elevation 178
METAR KI67 171435Z AUTO 17003KT 10SM CLR 23/20 A2997 RMK AO1
Observed Flight Rules
Aug-17 @ 14:35 UTC
(22 minutes ago)
VFR
Wind Visibility
170° at 3 knots 10 miles
Clouds
  • Clear skies
Temperature Dewpoint
23°C / 73°F 20°C / 68°F
Humidity Altimeter Pressure
83% 29.97" Hg 1015 hPa